Etusivu
METAR-TAF:

METAR-TAF

Lentoasemat :

Springbok, Etelä-Afrikka

Leveyspiiri: 29-40S, Pituuspiiri: 17-53E, korkeus merenpinnasta: 1006 m

Tämänhetkinen sää

Tämä raportti tehtiin 17 tuntia ja 26 minuuttia sitten, kello 10.53 UTC
Tuuli 5 kn etelästä/lounaasta
Lämpötila 26°C
Kosteus 24%
Ilmanpaine 1019 hPa
Näkyvyys 10 km tai enemmän
ei pilviä alle 1500 m:ssä eikä cumulonimbus-pilviä

METAR: FASB 251053Z 20005KT CAVOK 26/04 Q1019

Aika: 06:19 (04:19 UTC)


TAF: puuttuu

Säähavainnot ja -ennusteet yli 4000 lentoasemalta (METAR- ja TAF-raportit).

Käytössä olevat sääasemat on merkitty karttaan keltaisilla ja punaisilla pisteillä.

Aseta hiiri pisteen päälle nähdäksesi sääaseman nimen.

Klikkaa sitten nähdäksesi säähavainnot ja -ennusteet.

Kartan vaihtaminen: klikkaa mustalla rastilla varustettuja vihreitä pisteitä, niin voit zoomata sisään; viivalla varustettua vihreää pistettä, niin voit zoomata ulos tai vihreitä nuolia, niin pääset viereisille kartoille.


METAR-TAF: